sensor_id;sensor_type;location;lat;lon;timestamp;temperature;humidity
770;DHT22;368;48.698;9.116;2023-10-08T00:02:05;12.70;97.40
770;DHT22;368;48.698;9.116;2023-10-08T00:04:32;12.40;97.40
770;DHT22;368;48.698;9.116;2023-10-08T00:07:03;12.40;97.80
770;DHT22;368;48.698;9.116;2023-10-08T00:09:32;12.70;97.90
770;DHT22;368;48.698;9.116;2023-10-08T00:12:02;12.60;97.90
770;DHT22;368;48.698;9.116;2023-10-08T00:14:30;12.80;97.90
770;DHT22;368;48.698;9.116;2023-10-08T00:16:58;12.50;97.30
770;DHT22;368;48.698;9.116;2023-10-08T00:19:25;13.00;97.20
770;DHT22;368;48.698;9.116;2023-10-08T00:21:59;12.90;96.90
770;DHT22;368;48.698;9.116;2023-10-08T00:24:30;12.90;96.90
770;DHT22;368;48.698;9.116;2023-10-08T00:26:58;12.80;96.80
770;DHT22;368;48.698;9.116;2023-10-08T00:29:26;12.90;96.70
770;DHT22;368;48.698;9.116;2023-10-08T00:31:58;13.00;96.80
770;DHT22;368;48.698;9.116;2023-10-08T00:34:25;13.00;96.50
770;DHT22;368;48.698;9.116;2023-10-08T00:36:52;12.90;96.40
770;DHT22;368;48.698;9.116;2023-10-08T00:39:20;12.90;96.90
770;DHT22;368;48.698;9.116;2023-10-08T00:41:50;12.90;96.80
770;DHT22;368;48.698;9.116;2023-10-08T00:44:20;12.90;96.60
770;DHT22;368;48.698;9.116;2023-10-08T00:46:55;12.70;96.40
770;DHT22;368;48.698;9.116;2023-10-08T00:49:28;12.90;96.10
770;DHT22;368;48.698;9.116;2023-10-08T00:52:14;12.70;96.00
770;DHT22;368;48.698;9.116;2023-10-08T00:54:56;12.80;95.80
770;DHT22;368;48.698;9.116;2023-10-08T00:57:37;12.60;95.70
770;DHT22;368;48.698;9.116;2023-10-08T01:00:08;13.00;95.80
770;DHT22;368;48.698;9.116;2023-10-08T01:02:42;12.80;95.80
770;DHT22;368;48.698;9.116;2023-10-08T01:05:13;12.80;95.50
770;DHT22;368;48.698;9.116;2023-10-08T01:07:43;13.00;95.60
770;DHT22;368;48.698;9.116;2023-10-08T01:10:14;13.10;95.80
770;DHT22;368;48.698;9.116;2023-10-08T01:12:45;13.00;95.80
770;DHT22;368;48.698;9.116;2023-10-08T01:15:29;13.00;95.30
770;DHT22;368;48.698;9.116;2023-10-08T01:17:58;13.00;95.90
770;DHT22;368;48.698;9.116;2023-10-08T01:20:26;12.90;95.60
770;DHT22;368;48.698;9.116;2023-10-08T01:23:03;13.00;95.80
770;DHT22;368;48.698;9.116;2023-10-08T01:25:33;12.80;95.50
770;DHT22;368;48.698;9.116;2023-10-08T01:28:00;12.80;95.80
770;DHT22;368;48.698;9.116;2023-10-08T01:30:33;13.10;95.60
770;DHT22;368;48.698;9.116;2023-10-08T01:33:02;13.10;95.60
770;DHT22;368;48.698;9.116;2023-10-08T01:35:29;12.70;95.70
770;DHT22;368;48.698;9.116;2023-10-08T01:37:57;12.80;96.30
770;DHT22;368;48.698;9.116;2023-10-08T01:40:27;13.00;95.40
770;DHT22;368;48.698;9.116;2023-10-08T01:42:55;13.10;94.80
770;DHT22;368;48.698;9.116;2023-10-08T01:45:25;13.10;94.20
770;DHT22;368;48.698;9.116;2023-10-08T01:47:52;13.40;93.90
770;DHT22;368;48.698;9.116;2023-10-08T01:50:20;13.40;93.70
770;DHT22;368;48.698;9.116;2023-10-08T01:52:47;13.40;93.60
770;DHT22;368;48.698;9.116;2023-10-08T01:55:14;13.30;93.50
770;DHT22;368;48.698;9.116;2023-10-08T01:57:45;13.40;93.60
770;DHT22;368;48.698;9.116;2023-10-08T02:00:13;13.20;93.90
770;DHT22;368;48.698;9.116;2023-10-08T02:02:44;13.00;94.10
770;DHT22;368;48.698;9.116;2023-10-08T02:05:11;13.10;94.00
770;DHT22;368;48.698;9.116;2023-10-08T02:07:40;12.70;94.30
770;DHT22;368;48.698;9.116;2023-10-08T02:10:08;13.00;94.50
770;DHT22;368;48.698;9.116;2023-10-08T02:12:36;12.60;94.20
770;DHT22;368;48.698;9.116;2023-10-08T02:15:05;12.70;94.70
770;DHT22;368;48.698;9.116;2023-10-08T02:17:32;12.60;94.80
770;DHT22;368;48.698;9.116;2023-10-08T02:19:59;12.70;95.00
770;DHT22;368;48.698;9.116;2023-10-08T02:22:30;12.40;95.50
770;DHT22;368;48.698;9.116;2023-10-08T02:24:58;12.60;95.70
770;DHT22;368;48.698;9.116;2023-10-08T02:27:27;12.40;96.00
770;DHT22;368;48.698;9.116;2023-10-08T02:29:53;12.40;96.40
770;DHT22;368;48.698;9.116;2023-10-08T02:32:22;12.20;97.10
770;DHT22;368;48.698;9.116;2023-10-08T02:34:49;12.00;97.40
770;DHT22;368;48.698;9.116;2023-10-08T02:37:17;11.90;97.50
770;DHT22;368;48.698;9.116;2023-10-08T02:39:45;11.90;98.10
770;DHT22;368;48.698;9.116;2023-10-08T02:42:12;11.60;98.50
770;DHT22;368;48.698;9.116;2023-10-08T02:44:39;11.90;98.90
770;DHT22;368;48.698;9.116;2023-10-08T02:47:08;11.50;98.80
770;DHT22;368;48.698;9.116;2023-10-08T02:49:37;11.50;99.20
770;DHT22;368;48.698;9.116;2023-10-08T02:52:06;11.50;99.90
770;DHT22;368;48.698;9.116;2023-10-08T02:54:34;11.40;99.90
770;DHT22;368;48.698;9.116;2023-10-08T02:57:04;11.00;99.90
770;DHT22;368;48.698;9.116;2023-10-08T02:59:36;11.10;99.90
770;DHT22;368;48.698;9.116;2023-10-08T03:02:06;11.00;99.90
770;DHT22;368;48.698;9.116;2023-10-08T03:04:40;10.90;99.90
770;DHT22;368;48.698;9.116;2023-10-08T03:07:08;10.70;99.90
770;DHT22;368;48.698;9.116;2023-10-08T03:09:46;10.80;99.90
770;DHT22;368;48.698;9.116;2023-10-08T03:12:15;10.70;99.90
770;DHT22;368;48.698;9.116;2023-10-08T03:14:42;10.60;99.90
770;DHT22;368;48.698;9.116;2023-10-08T03:17:15;10.60;99.90
770;DHT22;368;48.698;9.116;2023-10-08T03:19:47;10.50;99.90
770;DHT22;368;48.698;9.116;2023-10-08T03:22:14;10.60;99.90
770;DHT22;368;48.698;9.116;2023-10-08T03:24:44;10.50;99.90
770;DHT22;368;48.698;9.116;2023-10-08T03:27:14;10.50;99.90
770;DHT22;368;48.698;9.116;2023-10-08T03:29:46;10.70;99.90
770;DHT22;368;48.698;9.116;2023-10-08T03:32:14;10.60;99.90
770;DHT22;368;48.698;9.116;2023-10-08T03:34:48;10.40;99.90
770;DHT22;368;48.698;9.116;2023-10-08T03:37:16;10.50;99.90
770;DHT22;368;48.698;9.116;2023-10-08T03:39:47;10.40;99.90
770;DHT22;368;48.698;9.116;2023-10-08T03:42:26;10.30;99.90
770;DHT22;368;48.698;9.116;2023-10-08T03:44:59;10.50;99.90
770;DHT22;368;48.698;9.116;2023-10-08T03:47:36;10.10;99.90
770;DHT22;368;48.698;9.116;2023-10-08T03:50:05;10.20;99.90
770;DHT22;368;48.698;9.116;2023-10-08T03:52:33;10.40;99.90
770;DHT22;368;48.698;9.116;2023-10-08T03:55:03;10.30;99.90
770;DHT22;368;48.698;9.116;2023-10-08T03:57:38;10.20;99.90
770;DHT22;368;48.698;9.116;2023-10-08T04:00:14;10.20;99.90
770;DHT22;368;48.698;9.116;2023-10-08T04:02:44;10.10;99.90
770;DHT22;368;48.698;9.116;2023-10-08T04:05:21;10.30;99.90
770;DHT22;368;48.698;9.116;2023-10-08T04:07:52;10.20;99.90
770;DHT22;368;48.698;9.116;2023-10-08T04:10:42;10.30;99.90
770;DHT22;368;48.698;9.116;2023-10-08T04:13:26;10.30;99.90
770;DHT22;368;48.698;9.116;2023-10-08T04:15:56;10.60;99.90
770;DHT22;368;48.698;9.116;2023-10-08T04:18:23;10.80;99.90
770;DHT22;368;48.698;9.116;2023-10-08T04:20:51;10.60;99.90
770;DHT22;368;48.698;9.116;2023-10-08T04:23:30;10.80;99.90
770;DHT22;368;48.698;9.116;2023-10-08T04:25:57;10.70;99.90
770;DHT22;368;48.698;9.116;2023-10-08T04:28:24;10.80;99.90
770;DHT22;368;48.698;9.116;2023-10-08T04:30:54;10.60;99.90
770;DHT22;368;48.698;9.116;2023-10-08T04:33:27;10.40;99.90
770;DHT22;368;48.698;9.116;2023-10-08T04:35:58;10.60;99.90
770;DHT22;368;48.698;9.116;2023-10-08T04:38:28;10.90;99.90
770;DHT22;368;48.698;9.116;2023-10-08T04:41:02;11.00;99.90
770;DHT22;368;48.698;9.116;2023-10-08T04:43:34;10.90;99.90
770;DHT22;368;48.698;9.116;2023-10-08T04:46:04;10.50;99.90
770;DHT22;368;48.698;9.116;2023-10-08T04:48:44;10.60;99.90
770;DHT22;368;48.698;9.116;2023-10-08T04:51:13;10.60;99.90
770;DHT22;368;48.698;9.116;2023-10-08T04:53:39;10.60;99.90
770;DHT22;368;48.698;9.116;2023-10-08T04:56:10;10.60;99.90
770;DHT22;368;48.698;9.116;2023-10-08T04:58:42;10.60;99.90
770;DHT22;368;48.698;9.116;2023-10-08T05:01:12;10.60;99.90
770;DHT22;368;48.698;9.116;2023-10-08T05:03:47;10.80;99.90
770;DHT22;368;48.698;9.116;2023-10-08T05:06:34;10.70;99.90
770;DHT22;368;48.698;9.116;2023-10-08T05:09:26;10.60;99.90
770;DHT22;368;48.698;9.116;2023-10-08T05:12:05;11.00;99.90
770;DHT22;368;48.698;9.116;2023-10-08T05:14:54;10.90;99.90
770;DHT22;368;48.698;9.116;2023-10-08T05:17:43;10.90;99.90
770;DHT22;368;48.698;9.116;2023-10-08T05:20:22;10.90;99.90
770;DHT22;368;48.698;9.116;2023-10-08T05:23:09;10.90;99.90
770;DHT22;368;48.698;9.116;2023-10-08T05:26:06;10.50;99.90
770;DHT22;368;48.698;9.116;2023-10-08T05:28:35;10.60;99.90
770;DHT22;368;48.698;9.116;2023-10-08T05:31:13;10.50;99.90
770;DHT22;368;48.698;9.116;2023-10-08T05:34:02;10.50;99.90
770;DHT22;368;48.698;9.116;2023-10-08T05:36:44;10.70;99.90
770;DHT22;368;48.698;9.116;2023-10-08T05:39:17;10.50;99.90
770;DHT22;368;48.698;9.116;2023-10-08T05:41:55;10.60;99.90
770;DHT22;368;48.698;9.116;2023-10-08T05:44:38;10.40;99.90
770;DHT22;368;48.698;9.116;2023-10-08T05:47:06;10.40;99.90
770;DHT22;368;48.698;9.116;2023-10-08T05:49:38;10.50;99.90
770;DHT22;368;48.698;9.116;2023-10-08T05:52:08;10.50;99.90
770;DHT22;368;48.698;9.116;2023-10-08T05:54:52;10.50;99.90
770;DHT22;368;48.698;9.116;2023-10-08T05:57:41;10.60;99.90
770;DHT22;368;48.698;9.116;2023-10-08T06:00:13;10.50;99.90
770;DHT22;368;48.698;9.116;2023-10-08T06:02:57;10.50;99.90
770;DHT22;368;48.698;9.116;2023-10-08T06:05:58;11.00;99.90
770;DHT22;368;48.698;9.116;2023-10-08T06:08:43;10.80;99.90
770;DHT22;368;48.698;9.116;2023-10-08T06:11:19;11.00;99.90
770;DHT22;368;48.698;9.116;2023-10-08T06:14:03;11.00;99.90
770;DHT22;368;48.698;9.116;2023-10-08T06:16:39;11.00;99.90
770;DHT22;368;48.698;9.116;2023-10-08T06:19:10;11.20;99.90
770;DHT22;368;48.698;9.116;2023-10-08T06:21:37;11.20;99.90
770;DHT22;368;48.698;9.116;2023-10-08T06:24:05;11.50;99.90
770;DHT22;368;48.698;9.116;2023-10-08T06:26:37;11.60;99.90
770;DHT22;368;48.698;9.116;2023-10-08T06:29:09;12.10;99.90
770;DHT22;368;48.698;9.116;2023-10-08T06:31:45;12.00;99.90
770;DHT22;368;48.698;9.116;2023-10-08T06:34:17;12.20;99.90
770;DHT22;368;48.698;9.116;2023-10-08T06:36:47;12.30;99.90
770;DHT22;368;48.698;9.116;2023-10-08T06:39:19;12.30;99.90
770;DHT22;368;48.698;9.116;2023-10-08T06:41:53;12.30;99.90
770;DHT22;368;48.698;9.116;2023-10-08T06:44:20;12.60;99.90
770;DHT22;368;48.698;9.116;2023-10-08T06:46:46;12.60;99.90
770;DHT22;368;48.698;9.116;2023-10-08T06:49:14;12.50;99.90
770;DHT22;368;48.698;9.116;2023-10-08T06:51:44;12.70;99.90
770;DHT22;368;48.698;9.116;2023-10-08T06:54:11;12.60;99.90
770;DHT22;368;48.698;9.116;2023-10-08T06:56:39;12.80;99.90
770;DHT22;368;48.698;9.116;2023-10-08T06:59:12;13.00;99.90
770;DHT22;368;48.698;9.116;2023-10-08T07:01:39;13.20;99.90
770;DHT22;368;48.698;9.116;2023-10-08T07:04:07;13.20;99.10
770;DHT22;368;48.698;9.116;2023-10-08T07:06:37;13.50;98.90
770;DHT22;368;48.698;9.116;2023-10-08T07:09:06;14.00;97.90
770;DHT22;368;48.698;9.116;2023-10-08T07:11:39;14.20;98.20
770;DHT22;368;48.698;9.116;2023-10-08T07:14:10;14.10;97.80
770;DHT22;368;48.698;9.116;2023-10-08T07:16:40;14.20;97.70
770;DHT22;368;48.698;9.116;2023-10-08T07:19:07;14.30;98.00
770;DHT22;368;48.698;9.116;2023-10-08T07:21:44;14.40;97.10
770;DHT22;368;48.698;9.116;2023-10-08T07:24:11;14.50;98.00
770;DHT22;368;48.698;9.116;2023-10-08T07:26:41;14.40;97.80
770;DHT22;368;48.698;9.116;2023-10-08T07:29:13;14.50;97.60
770;DHT22;368;48.698;9.116;2023-10-08T07:31:44;14.80;96.60
770;DHT22;368;48.698;9.116;2023-10-08T07:34:15;14.90;97.40
770;DHT22;368;48.698;9.116;2023-10-08T07:36:51;15.30;97.10
770;DHT22;368;48.698;9.116;2023-10-08T07:39:21;15.70;96.20
770;DHT22;368;48.698;9.116;2023-10-08T07:41:52;16.10;95.10
770;DHT22;368;48.698;9.116;2023-10-08T07:44:20;16.30;95.00
770;DHT22;368;48.698;9.116;2023-10-08T07:46:50;16.80;94.30
770;DHT22;368;48.698;9.116;2023-10-08T07:49:17;17.10;93.80
770;DHT22;368;48.698;9.116;2023-10-08T07:51:44;17.30;93.10
770;DHT22;368;48.698;9.116;2023-10-08T07:54:17;17.40;93.00
770;DHT22;368;48.698;9.116;2023-10-08T07:56:46;17.50;92.50
770;DHT22;368;48.698;9.116;2023-10-08T07:59:14;17.70;92.70
770;DHT22;368;48.698;9.116;2023-10-08T08:01:42;17.80;92.20
770;DHT22;368;48.698;9.116;2023-10-08T08:04:10;17.90;92.20
770;DHT22;368;48.698;9.116;2023-10-08T08:06:47;18.00;92.10
770;DHT22;368;48.698;9.116;2023-10-08T08:09:15;18.10;91.60
770;DHT22;368;48.698;9.116;2023-10-08T08:11:45;18.20;91.60
770;DHT22;368;48.698;9.116;2023-10-08T08:14:13;18.00;91.90
770;DHT22;368;48.698;9.116;2023-10-08T08:16:43;18.10;91.60
770;DHT22;368;48.698;9.116;2023-10-08T08:19:15;18.10;92.00
770;DHT22;368;48.698;9.116;2023-10-08T08:21:42;18.10;91.80
770;DHT22;368;48.698;9.116;2023-10-08T08:24:11;18.20;92.30
770;DHT22;368;48.698;9.116;2023-10-08T08:26:38;18.30;92.20
770;DHT22;368;48.698;9.116;2023-10-08T08:29:27;18.50;92.10
770;DHT22;368;48.698;9.116;2023-10-08T08:31:54;18.60;91.90
770;DHT22;368;48.698;9.116;2023-10-08T08:34:23;19.10;91.60
770;DHT22;368;48.698;9.116;2023-10-08T08:36:50;19.80;90.40
770;DHT22;368;48.698;9.116;2023-10-08T08:39:17;20.20;87.50
770;DHT22;368;48.698;9.116;2023-10-08T08:42:00;20.40;85.70
770;DHT22;368;48.698;9.116;2023-10-08T08:44:28;20.80;84.20
770;DHT22;368;48.698;9.116;2023-10-08T08:46:58;21.60;82.60
770;DHT22;368;48.698;9.116;2023-10-08T08:49:28;20.50;83.00
770;DHT22;368;48.698;9.116;2023-10-08T08:51:56;20.60;83.60
770;DHT22;368;48.698;9.116;2023-10-08T08:54:26;20.50;84.10
770;DHT22;368;48.698;9.116;2023-10-08T08:56:56;20.50;84.20
770;DHT22;368;48.698;9.116;2023-10-08T08:59:23;20.70;82.30
770;DHT22;368;48.698;9.116;2023-10-08T09:01:51;20.80;83.40
770;DHT22;368;48.698;9.116;2023-10-08T09:04:29;20.80;82.10
770;DHT22;368;48.698;9.116;2023-10-08T09:06:57;21.00;83.40
770;DHT22;368;48.698;9.116;2023-10-08T09:09:31;21.40;81.90
770;DHT22;368;48.698;9.116;2023-10-08T09:11:58;20.90;82.00
770;DHT22;368;48.698;9.116;2023-10-08T09:14:27;20.60;82.90
770;DHT22;368;48.698;9.116;2023-10-08T09:16:57;20.40;85.10
770;DHT22;368;48.698;9.116;2023-10-08T09:19:26;20.60;87.00
770;DHT22;368;48.698;9.116;2023-10-08T09:22:02;20.80;84.90
770;DHT22;368;48.698;9.116;2023-10-08T09:24:30;21.80;82.30
770;DHT22;368;48.698;9.116;2023-10-08T09:26:59;21.70;81.50
770;DHT22;368;48.698;9.116;2023-10-08T09:29:27;22.00;81.00
770;DHT22;368;48.698;9.116;2023-10-08T09:31:54;22.50;80.00
770;DHT22;368;48.698;9.116;2023-10-08T09:34:26;23.90;76.60
770;DHT22;368;48.698;9.116;2023-10-08T09:36:55;23.20;78.90
770;DHT22;368;48.698;9.116;2023-10-08T09:39:24;22.90;78.40
770;DHT22;368;48.698;9.116;2023-10-08T09:41:53;23.30;77.70
770;DHT22;368;48.698;9.116;2023-10-08T09:44:22;22.70;78.10
770;DHT22;368;48.698;9.116;2023-10-08T09:46:52;22.20;78.00
770;DHT22;368;48.698;9.116;2023-10-08T09:49:27;22.00;79.80
770;DHT22;368;48.698;9.116;2023-10-08T09:52:02;22.40;77.20
770;DHT22;368;48.698;9.116;2023-10-08T09:54:37;22.60;76.90
770;DHT22;368;48.698;9.116;2023-10-08T09:57:06;22.70;76.30
770;DHT22;368;48.698;9.116;2023-10-08T09:59:33;22.60;76.90
770;DHT22;368;48.698;9.116;2023-10-08T10:02:01;22.50;77.90
770;DHT22;368;48.698;9.116;2023-10-08T10:04:30;22.30;79.40
770;DHT22;368;48.698;9.116;2023-10-08T10:06:58;22.20;80.70
770;DHT22;368;48.698;9.116;2023-10-08T10:09:25;22.40;80.70
770;DHT22;368;48.698;9.116;2023-10-08T10:11:55;22.30;81.00
770;DHT22;368;48.698;9.116;2023-10-08T10:14:23;22.30;80.30
770;DHT22;368;48.698;9.116;2023-10-08T10:17:08;22.50;80.50
770;DHT22;368;48.698;9.116;2023-10-08T10:19:36;22.40;79.70
770;DHT22;368;48.698;9.116;2023-10-08T10:22:04;22.70;77.90
770;DHT22;368;48.698;9.116;2023-10-08T10:24:33;22.60;80.20
770;DHT22;368;48.698;9.116;2023-10-08T10:27:14;23.20;76.00
770;DHT22;368;48.698;9.116;2023-10-08T10:29:41;23.50;75.00
770;DHT22;368;48.698;9.116;2023-10-08T10:32:11;23.40;75.20
770;DHT22;368;48.698;9.116;2023-10-08T10:34:41;23.00;77.90
770;DHT22;368;48.698;9.116;2023-10-08T10:37:08;23.20;76.60
770;DHT22;368;48.698;9.116;2023-10-08T10:39:50;23.40;78.00
770;DHT22;368;48.698;9.116;2023-10-08T10:42:20;23.40;78.50
770;DHT22;368;48.698;9.116;2023-10-08T10:44:48;23.80;74.50
770;DHT22;368;48.698;9.116;2023-10-08T10:47:19;23.40;74.50
770;DHT22;368;48.698;9.116;2023-10-08T10:50:08;22.90;75.30
770;DHT22;368;48.698;9.116;2023-10-08T10:52:52;23.80;77.10
770;DHT22;368;48.698;9.116;2023-10-08T10:55:20;24.80;74.20
770;DHT22;368;48.698;9.116;2023-10-08T10:57:58;26.10;70.60
770;DHT22;368;48.698;9.116;2023-10-08T11:00:37;26.40;66.20
770;DHT22;368;48.698;9.116;2023-10-08T11:03:23;27.40;68.00
770;DHT22;368;48.698;9.116;2023-10-08T11:05:57;28.40;63.50
770;DHT22;368;48.698;9.116;2023-10-08T11:08:31;28.30;63.30
770;DHT22;368;48.698;9.116;2023-10-08T11:11:01;27.50;60.40
770;DHT22;368;48.698;9.116;2023-10-08T11:13:33;26.80;63.60
770;DHT22;368;48.698;9.116;2023-10-08T11:16:05;26.40;63.60
770;DHT22;368;48.698;9.116;2023-10-08T11:18:33;25.50;66.30
770;DHT22;368;48.698;9.116;2023-10-08T11:21:07;25.20;67.40
770;DHT22;368;48.698;9.116;2023-10-08T11:23:45;25.20;68.40
770;DHT22;368;48.698;9.116;2023-10-08T11:26:21;25.00;73.90
770;DHT22;368;48.698;9.116;2023-10-08T11:28:59;24.40;72.40
770;DHT22;368;48.698;9.116;2023-10-08T11:31:29;24.40;71.50
770;DHT22;368;48.698;9.116;2023-10-08T11:34:00;24.50;71.10
770;DHT22;368;48.698;9.116;2023-10-08T11:36:35;24.60;69.40
770;DHT22;368;48.698;9.116;2023-10-08T11:39:14;24.60;69.10
770;DHT22;368;48.698;9.116;2023-10-08T11:41:55;24.90;76.90
770;DHT22;368;48.698;9.116;2023-10-08T11:44:23;24.40;74.00
770;DHT22;368;48.698;9.116;2023-10-08T11:46:56;24.30;75.70
770;DHT22;368;48.698;9.116;2023-10-08T11:49:30;24.30;73.40
770;DHT22;368;48.698;9.116;2023-10-08T11:52:02;23.90;80.70
770;DHT22;368;48.698;9.116;2023-10-08T11:54:29;24.20;75.70
770;DHT22;368;48.698;9.116;2023-10-08T11:56:59;24.50;73.60
770;DHT22;368;48.698;9.116;2023-10-08T11:59:29;23.80;76.70
770;DHT22;368;48.698;9.116;2023-10-08T12:01:57;24.20;76.00
770;DHT22;368;48.698;9.116;2023-10-08T12:04:24;24.60;78.10
770;DHT22;368;48.698;9.116;2023-10-08T12:06:55;24.10;75.90
770;DHT22;368;48.698;9.116;2023-10-08T12:09:21;24.50;79.40
770;DHT22;368;48.698;9.116;2023-10-08T12:11:53;26.00;76.10
770;DHT22;368;48.698;9.116;2023-10-08T12:14:21;27.90;67.70
770;DHT22;368;48.698;9.116;2023-10-08T12:16:53;28.80;63.90
770;DHT22;368;48.698;9.116;2023-10-08T12:19:21;29.20;62.60
770;DHT22;368;48.698;9.116;2023-10-08T12:21:48;29.20;61.00
770;DHT22;368;48.698;9.116;2023-10-08T12:24:15;29.10;59.30
770;DHT22;368;48.698;9.116;2023-10-08T12:26:42;29.40;60.10
770;DHT22;368;48.698;9.116;2023-10-08T12:29:11;28.60;62.80
770;DHT22;368;48.698;9.116;2023-10-08T12:31:39;30.30;58.70
770;DHT22;368;48.698;9.116;2023-10-08T12:34:07;31.80;56.50
770;DHT22;368;48.698;9.116;2023-10-08T12:36:37;31.80;55.10
770;DHT22;368;48.698;9.116;2023-10-08T12:39:04;31.30;55.00
770;DHT22;368;48.698;9.116;2023-10-08T12:41:36;32.10;53.80
770;DHT22;368;48.698;9.116;2023-10-08T12:44:04;31.90;53.80
770;DHT22;368;48.698;9.116;2023-10-08T12:46:33;32.50;52.10
770;DHT22;368;48.698;9.116;2023-10-08T12:49:00;33.30;49.90
770;DHT22;368;48.698;9.116;2023-10-08T12:51:29;33.40;49.60
770;DHT22;368;48.698;9.116;2023-10-08T12:53:59;33.00;50.10
770;DHT22;368;48.698;9.116;2023-10-08T12:56:32;32.20;51.10
770;DHT22;368;48.698;9.116;2023-10-08T12:59:02;31.80;52.50
770;DHT22;368;48.698;9.116;2023-10-08T13:01:32;33.00;50.20
770;DHT22;368;48.698;9.116;2023-10-08T13:04:01;33.70;48.80
770;DHT22;368;48.698;9.116;2023-10-08T13:06:34;33.20;50.80
770;DHT22;368;48.698;9.116;2023-10-08T13:09:03;33.20;49.00
770;DHT22;368;48.698;9.116;2023-10-08T13:11:38;33.60;48.20
770;DHT22;368;48.698;9.116;2023-10-08T13:14:05;35.20;44.20
770;DHT22;368;48.698;9.116;2023-10-08T13:16:32;35.30;44.20
770;DHT22;368;48.698;9.116;2023-10-08T13:19:03;34.40;43.40
770;DHT22;368;48.698;9.116;2023-10-08T13:21:30;32.80;44.50
770;DHT22;368;48.698;9.116;2023-10-08T13:23:59;34.00;43.50
770;DHT22;368;48.698;9.116;2023-10-08T13:26:28;32.70;42.40
770;DHT22;368;48.698;9.116;2023-10-08T13:28:56;32.90;43.40
770;DHT22;368;48.698;9.116;2023-10-08T13:31:24;32.30;42.60
770;DHT22;368;48.698;9.116;2023-10-08T13:33:51;33.20;42.40
770;DHT22;368;48.698;9.116;2023-10-08T13:36:22;33.30;41.60
770;DHT22;368;48.698;9.116;2023-10-08T13:38:49;33.90;41.80
770;DHT22;368;48.698;9.116;2023-10-08T13:41:18;33.70;41.50
770;DHT22;368;48.698;9.116;2023-10-08T13:43:47;34.70;40.20
770;DHT22;368;48.698;9.116;2023-10-08T13:46:15;34.20;40.40
770;DHT22;368;48.698;9.116;2023-10-08T13:48:44;33.60;39.90
770;DHT22;368;48.698;9.116;2023-10-08T13:51:12;33.90;40.20
770;DHT22;368;48.698;9.116;2023-10-08T13:53:40;32.90;43.90
770;DHT22;368;48.698;9.116;2023-10-08T13:56:11;33.50;40.80
770;DHT22;368;48.698;9.116;2023-10-08T13:58:40;33.30;39.60
770;DHT22;368;48.698;9.116;2023-10-08T14:01:12;33.60;39.10
770;DHT22;368;48.698;9.116;2023-10-08T14:03:46;33.30;40.10
770;DHT22;368;48.698;9.116;2023-10-08T14:06:13;32.70;39.10
770;DHT22;368;48.698;9.116;2023-10-08T14:08:42;32.70;39.30
770;DHT22;368;48.698;9.116;2023-10-08T14:11:17;33.60;37.10
770;DHT22;368;48.698;9.116;2023-10-08T14:13:45;33.00;38.20
770;DHT22;368;48.698;9.116;2023-10-08T14:16:13;32.10;40.50
770;DHT22;368;48.698;9.116;2023-10-08T14:18:43;32.00;39.10
770;DHT22;368;48.698;9.116;2023-10-08T14:21:16;32.10;39.90
770;DHT22;368;48.698;9.116;2023-10-08T14:23:44;32.40;40.10
770;DHT22;368;48.698;9.116;2023-10-08T14:26:12;33.00;40.40
770;DHT22;368;48.698;9.116;2023-10-08T14:28:41;30.90;42.00
770;DHT22;368;48.698;9.116;2023-10-08T14:31:11;30.80;43.20
770;DHT22;368;48.698;9.116;2023-10-08T14:33:41;29.50;44.00
770;DHT22;368;48.698;9.116;2023-10-08T14:36:21;29.30;45.40
770;DHT22;368;48.698;9.116;2023-10-08T14:39:05;29.30;45.50
770;DHT22;368;48.698;9.116;2023-10-08T14:41:49;29.40;45.20
770;DHT22;368;48.698;9.116;2023-10-08T14:44:34;28.60;47.30
770;DHT22;368;48.698;9.116;2023-10-08T14:47:02;27.80;48.10
770;DHT22;368;48.698;9.116;2023-10-08T14:49:29;27.00;48.60
770;DHT22;368;48.698;9.116;2023-10-08T14:51:57;27.40;48.60
770;DHT22;368;48.698;9.116;2023-10-08T14:54:24;27.30;48.90
770;DHT22;368;48.698;9.116;2023-10-08T14:56:51;26.70;49.70
770;DHT22;368;48.698;9.116;2023-10-08T14:59:18;26.10;51.10
770;DHT22;368;48.698;9.116;2023-10-08T15:01:46;25.60;51.30
770;DHT22;368;48.698;9.116;2023-10-08T15:04:14;25.40;52.10
770;DHT22;368;48.698;9.116;2023-10-08T15:06:41;25.50;53.20
770;DHT22;368;48.698;9.116;2023-10-08T15:09:09;25.80;53.00
770;DHT22;368;48.698;9.116;2023-10-08T15:11:44;25.70;53.00
770;DHT22;368;48.698;9.116;2023-10-08T15:14:11;26.50;52.00
770;DHT22;368;48.698;9.116;2023-10-08T15:16:41;26.10;51.90
770;DHT22;368;48.698;9.116;2023-10-08T15:19:09;26.30;51.60
770;DHT22;368;48.698;9.116;2023-10-08T15:21:38;25.90;51.80
770;DHT22;368;48.698;9.116;2023-10-08T15:24:06;25.70;52.70
770;DHT22;368;48.698;9.116;2023-10-08T15:26:37;24.60;53.90
770;DHT22;368;48.698;9.116;2023-10-08T15:29:04;24.50;54.70
770;DHT22;368;48.698;9.116;2023-10-08T15:31:32;24.50;55.40
770;DHT22;368;48.698;9.116;2023-10-08T15:33:59;24.40;55.50
770;DHT22;368;48.698;9.116;2023-10-08T15:36:30;24.30;55.60
770;DHT22;368;48.698;9.116;2023-10-08T15:38:59;23.80;56.30
770;DHT22;368;48.698;9.116;2023-10-08T15:41:25;23.70;57.40
770;DHT22;368;48.698;9.116;2023-10-08T15:43:52;23.70;57.60
770;DHT22;368;48.698;9.116;2023-10-08T15:46:24;23.90;57.70
770;DHT22;368;48.698;9.116;2023-10-08T15:48:51;23.90;57.60
770;DHT22;368;48.698;9.116;2023-10-08T15:51:18;23.80;58.00
770;DHT22;368;48.698;9.116;2023-10-08T15:53:45;24.10;58.50
770;DHT22;368;48.698;9.116;2023-10-08T15:56:13;23.90;59.80
770;DHT22;368;48.698;9.116;2023-10-08T15:58:40;23.90;59.00
770;DHT22;368;48.698;9.116;2023-10-08T16:01:07;23.80;58.40
770;DHT22;368;48.698;9.116;2023-10-08T16:03:34;23.30;59.20
770;DHT22;368;48.698;9.116;2023-10-08T16:06:00;23.20;60.30
770;DHT22;368;48.698;9.116;2023-10-08T16:08:27;23.10;62.10
770;DHT22;368;48.698;9.116;2023-10-08T16:10:54;23.10;64.60
770;DHT22;368;48.698;9.116;2023-10-08T16:13:22;22.80;62.60
770;DHT22;368;48.698;9.116;2023-10-08T16:15:49;22.60;62.70
770;DHT22;368;48.698;9.116;2023-10-08T16:18:16;22.40;64.40
770;DHT22;368;48.698;9.116;2023-10-08T16:20:43;22.20;67.70
770;DHT22;368;48.698;9.116;2023-10-08T16:23:10;22.00;69.80
770;DHT22;368;48.698;9.116;2023-10-08T16:25:38;21.80;70.70
770;DHT22;368;48.698;9.116;2023-10-08T16:28:06;21.70;70.90
770;DHT22;368;48.698;9.116;2023-10-08T16:30:34;21.30;73.10
770;DHT22;368;48.698;9.116;2023-10-08T16:33:02;21.10;76.00
770;DHT22;368;48.698;9.116;2023-10-08T16:35:31;20.80;79.20
770;DHT22;368;48.698;9.116;2023-10-08T16:37:58;20.50;79.80
770;DHT22;368;48.698;9.116;2023-10-08T16:40:26;20.20;82.80
770;DHT22;368;48.698;9.116;2023-10-08T16:42:52;19.90;83.40
770;DHT22;368;48.698;9.116;2023-10-08T16:45:19;19.60;85.10
770;DHT22;368;48.698;9.116;2023-10-08T16:47:48;19.40;86.50
770;DHT22;368;48.698;9.116;2023-10-08T16:50:16;19.10;87.80
770;DHT22;368;48.698;9.116;2023-10-08T16:52:43;18.70;90.50
770;DHT22;368;48.698;9.116;2023-10-08T16:55:11;18.50;91.20
770;DHT22;368;48.698;9.116;2023-10-08T16:57:39;18.40;91.60
770;DHT22;368;48.698;9.116;2023-10-08T17:00:07;18.20;92.00